Time;durP1;ratioP1;P1;durP2;ratioP2;P2;SDS_P1;SDS_P2;PMS_P1;PMS_P2;Temp;Humidity;BMP_temperature;BMP_pressure;BME280_temperature;BME280_humidity;BME280_pressure;Samples;Min_cycle;Max_cycle;Signal;HPM_P1;HPM_P2
2023/03/03 00:00:19;;;;;;;8.17;5.93;;;;;;;16.90;51.44;100631.16;5112805;27;20621;-62
2023/03/03 00:02:44;;;;;;;8.50;5.33;;;;;;;16.93;51.32;100633.28;5112503;28;20177;-61
2023/03/03 00:05:14;;;;;;;6.67;5.23;;;;;;;17.04;51.21;100634.41;5103200;28;20221;-61
2023/03/03 00:07:42;;;;;;;8.90;6.37;;;;;;;16.95;50.25;100630.91;5104336;28;20249;-61
2023/03/03 00:10:08;;;;;;;17.57;12.93;;;;;;;16.65;47.67;100630.41;5111012;28;20427;-61
2023/03/03 00:12:34;;;;;;;21.93;14.47;;;;;;;16.49;46.69;100635.19;5113468;27;20553;-61
2023/03/03 00:14:59;;;;;;;25.90;18.17;;;;;;;16.59;45.59;100631.84;5104810;27;20429;-61
2023/03/03 00:17:29;;;;;;;25.17;17.00;;;;;;;16.88;44.82;100622.97;5100535;28;21058;-61
2023/03/03 00:19:54;;;;;;;27.70;16.57;;;;;;;17.08;44.72;100636.19;5095938;28;20275;-61
2023/03/03 00:22:34;;;;;;;29.27;16.77;;;;;;;17.18;45.37;100629.97;5110255;28;20891;-60
2023/03/03 00:25:18;;;;;;;29.13;16.73;;;;;;;17.30;45.11;100624.19;5108364;28;20208;-61
2023/03/03 00:27:44;;;;;;;24.67;16.27;;;;;;;17.44;45.28;100620.94;5104257;28;20473;-61
2023/03/03 00:30:25;;;;;;;21.87;15.70;;;;;;;17.65;45.31;100622.34;5101814;27;20431;-61
2023/03/03 00:32:54;;;;;;;28.23;15.37;;;;;;;17.74;45.20;100617.28;5102739;28;20648;-61
2023/03/03 00:35:34;;;;;;;22.60;14.33;;;;;;;17.74;45.09;100619.31;5110876;27;20431;-61
2023/03/03 00:38:01;;;;;;;26.43;14.20;;;;;;;17.70;45.51;100613.50;5111749;28;20443;-61
2023/03/03 00:40:34;;;;;;;20.83;14.57;;;;;;;17.65;45.57;100616.63;5111087;28;20435;-61
2023/03/03 00:43:00;;;;;;;20.03;13.80;;;;;;;17.69;46.03;100616.72;5109955;28;20410;-61
2023/03/03 00:45:27;;;;;;;18.00;11.23;;;;;;;17.59;46.76;100612.41;5108384;28;21005;-61
2023/03/03 00:47:52;;;;;;;18.97;12.43;;;;;;;17.56;46.69;100613.13;5110469;28;20605;-61
2023/03/03 00:50:26;;;;;;;18.27;12.63;;;;;;;17.46;47.24;100619.38;5109586;28;20424;-61
2023/03/03 00:53:06;;;;;;;18.03;11.90;;;;;;;17.38;47.39;100622.38;5107271;27;20713;-61
2023/03/03 00:55:32;;;;;;;20.03;12.40;;;;;;;17.34;47.96;100627.13;5108412;28;20423;-61
2023/03/03 00:57:57;;;;;;;21.43;12.63;;;;;;;17.31;47.89;100622.19;5110708;28;20962;-61
2023/03/03 01:00:23;;;;;;;20.33;11.77;;;;;;;17.30;48.09;100621.34;5110623;28;20407;-61
2023/03/03 01:02:49;;;;;;;25.13;13.30;;;;;;;17.27;48.38;100622.09;5113356;27;20193;-61
2023/03/03 01:05:15;;;;;;;17.83;12.13;;;;;;;17.22;48.34;100625.19;5108551;28;20293;-61
2023/03/03 01:07:41;;;;;;;17.87;11.70;;;;;;;17.24;48.52;100622.81;5093147;28;20480;-61
2023/03/03 01:10:07;;;;;;;19.43;12.00;;;;;;;17.17;48.52;100618.91;5085681;28;20924;-61
2023/03/03 01:12:32;;;;;;;18.77;12.20;;;;;;;17.14;48.68;100629.03;5090404;28;20653;-61
2023/03/03 01:14:57;;;;;;;17.20;12.03;;;;;;;17.12;48.95;100631.44;5090797;28;20170;-61
2023/03/03 01:17:23;;;;;;;18.33;12.07;;;;;;;17.10;48.98;100625.25;5089515;28;20206;-61
2023/03/03 01:19:48;;;;;;;16.70;10.90;;;;;;;17.12;49.29;100619.19;5090258;28;20178;-61
2023/03/03 01:22:14;;;;;;;19.00;11.77;;;;;;;17.13;49.04;100624.53;5088783;28;20182;-61
2023/03/03 01:24:39;;;;;;;15.80;11.10;;;;;;;17.12;48.98;100614.31;5090169;28;20150;-61
2023/03/03 01:27:04;;;;;;;14.33;9.87;;;;;;;17.14;49.34;100614.78;5090185;28;20212;-61
2023/03/03 01:29:30;;;;;;;15.50;10.70;;;;;;;17.15;49.25;100613.56;5089946;28;20178;-61
2023/03/03 01:31:55;;;;;;;15.13;11.03;;;;;;;17.22;49.11;100605.22;5092581;28;20212;-61
2023/03/03 01:34:21;;;;;;;16.00;11.07;;;;;;;17.22;49.13;100612.94;5071146;28;20522;-61
2023/03/03 01:36:46;;;;;;;21.70;11.63;;;;;;;17.24;49.15;100616.25;5089083;28;20206;-61
2023/03/03 01:39:12;;;;;;;16.03;10.07;;;;;;;17.20;49.23;100610.44;5090233;28;20247;-61
2023/03/03 01:41:37;;;;;;;16.17;10.80;;;;;;;17.14;49.45;100623.31;5089181;28;20182;-61
2023/03/03 01:44:03;;;;;;;15.67;10.30;;;;;;;17.15;49.48;100624.97;5089985;28;20183;-61
2023/03/03 01:46:43;;;;;;;19.07;11.30;;;;;;;17.09;49.67;100620.72;5090208;28;20181;-61
2023/03/03 01:49:37;;;;;;;13.13;9.57;;;;;;;17.06;49.82;100624.31;5071225;28;20200;-61
2023/03/03 01:52:08;;;;;;;14.93;10.93;;;;;;;17.03;49.80;100627.91;5068075;28;20435;-61
2023/03/03 01:54:37;;;;;;;24.07;10.90;;;;;;;17.03;49.84;100618.50;5055007;28;20444;-61
2023/03/03 01:57:04;;;;;;;18.00;10.70;;;;;;;17.00;49.86;100610.69;5092041;28;20463;-62
2023/03/03 01:59:33;;;;;;;14.60;9.13;;;;;;;16.99;49.81;100612.69;5088933;28;20447;-61
2023/03/03 02:01:58;;;;;;;14.43;10.77;;;;;;;16.98;50.19;100605.34;5089687;28;20832;-61
2023/03/03 02:04:25;;;;;;;14.50;10.73;;;;;;;16.96;50.19;100607.72;5089717;28;20436;-61
2023/03/03 02:07:00;;;;;;;14.07;10.50;;;;;;;16.96;50.18;100602.00;5092285;28;20308;-61
2023/03/03 02:09:33;;;;;;;14.37;10.80;;;;;;;16.96;50.20;100593.44;5109797;28;20434;-61
2023/03/03 02:12:00;;;;;;;16.43;11.07;;;;;;;16.93;50.35;100593.34;5111279;28;20890;-61
2023/03/03 02:14:26;;;;;;;15.37;10.63;;;;;;;16.97;50.12;100583.72;5074425;28;21082;-61
2023/03/03 02:16:51;;;;;;;15.03;9.93;;;;;;;16.97;50.15;100589.44;5117468;28;20443;-60
2023/03/03 02:19:23;;;;;;;15.00;10.00;;;;;;;16.96;50.08;100590.59;5114732;28;20730;-61
2023/03/03 02:21:48;;;;;;;14.47;9.33;;;;;;;16.95;49.85;100588.94;5097538;28;20659;-61
2023/03/03 02:24:32;;;;;;;16.70;11.43;;;;;;;16.99;50.15;100591.88;5114460;28;20431;-61
2023/03/03 02:26:57;;;;;;;12.87;9.60;;;;;;;16.97;50.06;100589.44;5116289;28;20600;-61
2023/03/03 02:29:23;;;;;;;13.87;9.47;;;;;;;16.98;50.13;100585.38;5098034;28;20411;-61
2023/03/03 02:31:48;;;;;;;13.33;9.90;;;;;;;16.97;49.96;100583.72;5115925;28;20154;-61
2023/03/03 02:34:14;;;;;;;11.77;8.90;;;;;;;16.95;49.92;100585.28;5099050;27;20185;-61
2023/03/03 02:36:39;;;;;;;14.33;9.70;;;;;;;16.95;50.08;100591.78;5097236;27;20216;-61
2023/03/03 02:39:25;;;;;;;11.07;8.40;;;;;;;16.95;50.33;100583.25;5103809;28;20177;-61
2023/03/03 02:41:56;;;;;;;13.33;9.60;;;;;;;16.97;50.17;100592.28;5097785;28;20192;-61
2023/03/03 02:44:22;;;;;;;11.67;8.70;;;;;;;16.95;49.87;100591.78;5097259;28;20399;-61
2023/03/03 02:46:48;;;;;;;15.20;9.43;;;;;;;16.95;50.17;100591.78;5116103;28;20423;-61
2023/03/03 02:49:17;;;;;;;12.67;9.30;;;;;;;17.00;50.02;100593.56;5116033;28;20439;-62
2023/03/03 02:51:42;;;;;;;14.03;10.13;;;;;;;16.99;49.99;100592.72;5115415;28;20501;-61
2023/03/03 02:54:08;;;;;;;13.77;9.70;;;;;;;17.05;50.01;100602.69;5116412;28;20414;-61
2023/03/03 02:56:33;;;;;;;12.70;9.23;;;;;;;17.04;50.06;100597.34;5116057;28;20212;-61
2023/03/03 02:58:59;;;;;;;12.00;9.23;;;;;;;17.01;50.08;100607.44;5116678;28;20185;-61
2023/03/03 03:01:24;;;;;;;12.93;8.83;;;;;;;16.96;49.99;100598.34;5116427;28;20174;-61
2023/03/03 03:03:50;;;;;;;12.27;9.50;;;;;;;16.93;50.34;100604.75;5115591;28;20931;-61
2023/03/03 03:06:15;;;;;;;12.33;8.70;;;;;;;16.93;50.28;100611.31;5119742;27;20241;-61
2023/03/03 03:08:40;;;;;;;12.67;9.33;;;;;;;16.89;50.46;100609.53;5116139;28;20254;-61
2023/03/03 03:11:06;;;;;;;12.10;8.67;;;;;;;16.86;50.39;100613.94;5116327;28;20597;-61
2023/03/03 03:13:31;;;;;;;11.83;9.27;;;;;;;16.91;50.17;100610.81;5115656;28;20188;-61
2023/03/03 03:15:58;;;;;;;13.47;9.23;;;;;;;16.89;50.24;100607.50;5119450;27;20173;-62
2023/03/03 03:18:23;;;;;;;13.47;9.03;;;;;;;16.90;50.21;100616.91;5136632;27;20193;-61
2023/03/03 03:20:49;;;;;;;13.73;9.30;;;;;;;16.88;50.53;100614.41;5136956;27;20403;-61
2023/03/03 03:23:14;;;;;;;13.03;8.80;;;;;;;16.88;50.64;100619.28;5116785;27;20188;-61
2023/03/03 03:25:44;;;;;;;13.80;9.83;;;;;;;16.85;50.16;100626.53;5116230;28;20162;-61
2023/03/03 03:28:12;;;;;;;13.30;8.67;;;;;;;16.85;50.61;100614.31;5115191;28;20205;-61
2023/03/03 03:30:38;;;;;;;11.70;8.40;;;;;;;16.88;50.65;100616.41;5112930;28;20962;-61
2023/03/03 03:33:03;;;;;;;11.57;8.47;;;;;;;16.89;50.64;100607.50;5113118;28;20419;-61
2023/03/03 03:35:29;;;;;;;12.40;8.63;;;;;;;16.95;50.26;100616.66;5111950;28;20158;-61
2023/03/03 03:37:54;;;;;;;9.80;7.50;;;;;;;16.91;50.27;100615.72;5093909;28;20216;-61
2023/03/03 03:40:20;;;;;;;11.70;8.37;;;;;;;16.90;50.22;100620.56;5113112;28;20196;-61
2023/03/03 03:42:45;;;;;;;12.43;9.03;;;;;;;16.92;50.20;100631.63;5112802;28;20158;-62
2023/03/03 03:45:14;;;;;;;11.30;8.17;;;;;;;16.92;50.49;100629.63;5112234;28;20178;-62
2023/03/03 03:47:40;;;;;;;12.73;8.97;;;;;;;16.92;50.23;100638.16;5112463;28;20173;-62
2023/03/03 03:50:07;;;;;;;10.90;8.57;;;;;;;16.92;50.15;100643.03;5112347;28;20403;-61
2023/03/03 03:52:32;;;;;;;13.60;9.40;;;;;;;16.94;50.17;100635.78;5093671;28;20468;-61
2023/03/03 03:54:58;;;;;;;11.63;8.60;;;;;;;16.98;50.42;100641.56;5111386;28;20943;-62
2023/03/03 03:57:23;;;;;;;14.50;8.87;;;;;;;16.98;50.06;100642.41;5112440;28;20922;-62
2023/03/03 03:59:49;;;;;;;12.50;9.20;;;;;;;16.94;50.06;100638.63;5111919;28;20637;-61
2023/03/03 04:02:14;;;;;;;11.23;8.00;;;;;;;16.87;50.59;100638.41;5112537;27;20150;-61
2023/03/03 04:04:40;;;;;;;10.83;8.20;;;;;;;16.85;50.53;100626.53;5114391;27;20691;-61
2023/03/03 04:07:05;;;;;;;12.53;9.60;;;;;;;16.94;50.28;100634.94;5106650;28;20225;-61
2023/03/03 04:09:30;;;;;;;12.23;8.70;;;;;;;16.96;50.37;100638.28;5091365;28;20186;-62
2023/03/03 04:11:56;;;;;;;10.63;7.90;;;;;;;16.94;50.33;100630.06;5091502;28;20172;-61
2023/03/03 04:14:21;;;;;;;13.70;8.17;;;;;;;16.93;50.11;100631.25;5090366;28;20178;-61
2023/03/03 04:16:47;;;;;;;11.50;8.30;;;;;;;16.91;50.26;100635.66;5098782;28;20200;-61
2023/03/03 04:19:12;;;;;;;11.87;8.17;;;;;;;16.85;50.79;100620.03;5106904;28;20216;-62
2023/03/03 04:21:38;;;;;;;11.60;8.20;;;;;;;16.83;50.68;100622.38;5091009;28;20200;-61
2023/03/03 04:24:04;;;;;;;12.70;8.30;;;;;;;16.82;50.43;100618.72;5090476;28;20205;-61
2023/03/03 04:26:30;;;;;;;11.30;8.03;;;;;;;16.82;50.52;100630.13;5091230;28;20576;-61
2023/03/03 04:28:56;;;;;;;11.20;7.40;;;;;;;16.83;50.96;100625.22;5091857;28;20158;-61
2023/03/03 04:31:22;;;;;;;11.40;8.70;;;;;;;16.83;50.58;100628.09;5090897;28;20494;-61
2023/03/03 04:33:47;;;;;;;11.83;8.63;;;;;;;16.78;50.61;100629.19;5093353;28;20417;-61
2023/03/03 04:36:13;;;;;;;12.60;8.60;;;;;;;16.81;50.72;100634.13;5090384;28;20669;-61
2023/03/03 04:38:38;;;;;;;12.47;8.57;;;;;;;16.78;50.53;100637.72;5091358;28;20964;-61
2023/03/03 04:41:04;;;;;;;11.83;9.00;;;;;;;16.83;50.71;100637.47;5090334;28;20550;-61
2023/03/03 04:43:29;;;;;;;11.17;7.90;;;;;;;16.80;50.57;100640.22;5091780;28;20693;-61
2023/03/03 04:45:55;;;;;;;10.40;8.20;;;;;;;16.77;50.83;100633.22;5091097;28;20673;-61
2023/03/03 04:48:20;;;;;;;11.63;8.40;;;;;;;16.83;50.58;100639.50;5091301;28;20166;-61
2023/03/03 04:50:45;;;;;;;11.67;8.40;;;;;;;16.85;50.29;100637.94;5090432;28;20247;-61
2023/03/03 04:53:11;;;;;;;11.50;7.97;;;;;;;16.86;50.50;100644.47;5090629;28;20551;-61
2023/03/03 04:55:36;;;;;;;11.03;8.43;;;;;;;16.83;50.43;100639.50;5090080;28;20182;-61
2023/03/03 04:58:03;;;;;;;11.60;8.60;;;;;;;16.84;50.56;100642.00;5090927;28;20358;-61
2023/03/03 05:00:28;;;;;;;9.53;7.70;;;;;;;16.86;50.45;100641.63;5093344;28;20188;-61
2023/03/03 05:02:53;;;;;;;11.90;8.30;;;;;;;16.89;50.43;100644.59;5089725;28;20510;-61
2023/03/03 05:05:19;;;;;;;11.13;8.23;;;;;;;16.91;50.26;100647.88;5079562;28;20901;-61
2023/03/03 05:07:44;;;;;;;11.13;8.30;;;;;;;16.89;50.24;100650.28;5081606;28;20715;-61
2023/03/03 05:10:10;;;;;;;12.83;8.77;;;;;;;16.88;50.32;100645.78;5101204;28;20238;-61
2023/03/03 05:12:35;;;;;;;10.83;8.20;;;;;;;16.90;50.12;100648.28;5106597;28;20648;-61
2023/03/03 05:15:01;;;;;;;11.83;8.43;;;;;;;16.89;50.14;100640.88;5111052;28;20165;-61
2023/03/03 05:17:27;;;;;;;11.23;8.13;;;;;;;16.83;50.27;100651.75;5096189;28;20291;-61
2023/03/03 05:19:53;;;;;;;12.87;8.30;;;;;;;16.87;50.28;100652.69;5072638;28;20175;-61
2023/03/03 05:22:18;;;;;;;9.60;7.03;;;;;;;16.96;50.30;100653.34;5089515;28;20178;-61
2023/03/03 05:24:47;;;;;;;10.03;7.43;;;;;;;16.94;49.94;100652.88;5090365;28;20476;-61
2023/03/03 05:27:13;;;;;;;12.07;9.10;;;;;;;16.91;50.44;100665.00;5090424;28;20246;-61
2023/03/03 05:29:38;;;;;;;10.90;7.83;;;;;;;16.87;50.39;100657.53;5089442;28;20966;-61
2023/03/03 05:32:04;;;;;;;10.87;8.07;;;;;;;16.86;50.50;100655.88;5074707;28;20182;-61
2023/03/03 05:34:29;;;;;;;10.57;7.80;;;;;;;16.84;50.90;100656.25;5070122;28;20190;-61
2023/03/03 05:36:55;;;;;;;11.53;8.17;;;;;;;16.82;50.81;100661.50;5070032;28;20595;-61
2023/03/03 05:39:20;;;;;;;11.33;7.87;;;;;;;16.81;50.47;100659.00;5089290;28;20204;-61
2023/03/03 05:41:46;;;;;;;10.70;8.30;;;;;;;16.81;50.94;100654.09;5110563;28;20627;-58
2023/03/03 05:44:11;;;;;;;10.53;7.57;;;;;;;16.77;51.02;100663.75;5098092;28;20252;-59
2023/03/03 05:46:37;;;;;;;10.90;7.20;;;;;;;16.78;50.79;100669.09;5090165;28;20182;-59
2023/03/03 05:49:02;;;;;;;9.40;7.20;;;;;;;16.77;50.74;100664.59;5090051;28;20276;-59
2023/03/03 05:51:28;;;;;;;11.80;8.20;;;;;;;16.76;50.62;100674.31;5089288;28;20186;-59
2023/03/03 05:53:53;;;;;;;10.53;7.23;;;;;;;16.77;50.83;100670.28;5088994;28;20189;-59
2023/03/03 05:56:18;;;;;;;11.03;8.10;;;;;;;16.78;50.87;100674.81;5089882;28;20610;-60
2023/03/03 05:58:44;;;;;;;9.03;6.60;;;;;;;16.77;50.68;100678.00;5088721;28;20886;-60
2023/03/03 06:01:10;;;;;;;10.97;7.97;;;;;;;16.73;50.87;100679.91;5089207;28;20665;-60
2023/03/03 06:03:35;;;;;;;9.07;7.43;;;;;;;16.82;50.52;100672.06;5092284;28;20225;-60
2023/03/03 06:06:01;;;;;;;10.73;7.47;;;;;;;16.98;49.84;100678.66;5071797;28;20179;-60
2023/03/03 06:08:26;;;;;;;11.60;8.37;;;;;;;16.82;50.53;100677.75;5098585;28;20298;-59
2023/03/03 06:10:52;;;;;;;10.93;8.20;;;;;;;16.86;50.51;100687.25;5110185;28;20161;-60
2023/03/03 06:13:17;;;;;;;10.80;7.40;;;;;;;16.83;50.25;100691.66;5109846;28;20973;-60
2023/03/03 06:15:43;;;;;;;10.43;7.70;;;;;;;16.84;50.48;100687.59;5091322;28;20186;-60
2023/03/03 06:18:08;;;;;;;11.03;7.63;;;;;;;16.88;50.56;100688.56;5127983;28;20273;-60
2023/03/03 06:20:34;;;;;;;10.47;8.00;;;;;;;16.88;50.30;100688.56;5091819;28;20178;-60
2023/03/03 06:22:59;;;;;;;10.03;7.10;;;;;;;16.86;50.77;100690.91;5108529;28;20184;-60
2023/03/03 06:25:25;;;;;;;10.50;7.43;;;;;;;16.89;50.60;100692.22;5107643;28;20538;-60
2023/03/03 06:27:51;;;;;;;9.13;6.67;;;;;;;16.88;50.26;100694.25;5084330;28;20189;-60
2023/03/03 06:30:17;;;;;;;10.37;7.73;;;;;;;16.84;50.31;100703.88;5104936;28;20185;-60
2023/03/03 06:32:43;;;;;;;11.03;7.50;;;;;;;16.81;50.61;100702.56;5105744;28;20613;-60
2023/03/03 06:35:08;;;;;;;9.43;7.00;;;;;;;16.83;50.41;100703.06;5106786;28;20451;-60
2023/03/03 06:37:34;;;;;;;10.47;7.70;;;;;;;16.96;50.29;100712.41;5109713;28;20614;-60
2023/03/03 06:39:59;;;;;;;11.93;7.63;;;;;;;16.96;50.09;100710.38;5111517;28;20254;-60
2023/03/03 06:42:25;;;;;;;10.30;7.67;;;;;;;16.89;50.36;100707.31;5109984;28;20223;-60
2023/03/03 06:44:50;;;;;;;9.17;7.43;;;;;;;16.89;50.46;100706.47;5108914;28;20189;-60
2023/03/03 06:47:16;;;;;;;9.80;6.80;;;;;;;16.84;50.69;100710.41;5109766;28;20188;-60
2023/03/03 06:49:41;;;;;;;10.47;7.40;;;;;;;16.84;50.43;100713.28;5108477;28;20197;-60
2023/03/03 06:52:17;;;;;;;8.93;6.83;;;;;;;16.81;50.44;100716.81;5109099;28;20174;-60
2023/03/03 06:54:42;;;;;;;9.77;7.40;;;;;;;16.82;50.91;100724.22;5090722;28;20173;-59
2023/03/03 06:57:29;;;;;;;9.33;7.10;;;;;;;16.81;50.83;100735.97;5109395;28;20983;-60
2023/03/03 06:59:59;;;;;;;9.20;7.37;;;;;;;16.82;50.77;100734.78;5075866;28;20177;-60
2023/03/03 07:02:24;;;;;;;9.43;6.77;;;;;;;16.78;50.85;100742.38;5090620;28;20530;-60
2023/03/03 07:04:50;;;;;;;10.63;8.20;;;;;;;16.79;50.57;100736.31;5110344;28;20824;-60
2023/03/03 07:07:17;;;;;;;9.80;7.77;;;;;;;16.76;50.80;100734.19;5114591;27;20513;-60
2023/03/03 07:09:47;;;;;;;11.37;7.47;;;;;;;16.75;51.10;100732.53;5112028;28;20182;-60
2023/03/03 07:12:18;;;;;;;8.70;6.27;;;;;;;16.75;50.82;100743.94;5113303;28;20422;-60
2023/03/03 07:14:46;;;;;;;11.10;7.23;;;;;;;16.77;50.55;100740.72;5104340;28;20563;-60
2023/03/03 07:17:16;;;;;;;8.77;7.03;;;;;;;16.80;50.59;100745.72;5105948;27;20473;-60
2023/03/03 07:19:42;;;;;;;10.20;7.40;;;;;;;16.86;50.18;100742.25;5112241;28;20408;-60
2023/03/03 07:22:17;;;;;;;8.57;7.10;;;;;;;16.89;50.52;100735.84;5093583;28;20492;-60
2023/03/03 07:24:48;;;;;;;8.07;6.77;;;;;;;16.84;50.54;100752.34;5111978;28;20189;-61
2023/03/03 07:27:25;;;;;;;10.33;7.60;;;;;;;16.88;50.56;100748.44;5093654;28;20423;-60
2023/03/03 07:29:51;;;;;;;9.73;7.23;;;;;;;16.87;50.35;100749.63;5107397;28;20419;-60
2023/03/03 07:32:24;;;;;;;9.53;7.20;;;;;;;16.87;50.21;100748.78;5110156;28;20470;-60
2023/03/03 07:34:50;;;;;;;10.60;7.60;;;;;;;16.88;50.42;100757.00;5112809;28;20464;-60
2023/03/03 07:37:21;;;;;;;10.20;7.20;;;;;;;16.89;50.46;100763.50;5090985;28;20459;-60
2023/03/03 07:39:46;;;;;;;10.40;6.70;;;;;;;16.90;50.36;100770.91;5109447;28;20681;-60
2023/03/03 07:42:39;;;;;;;11.70;8.33;;;;;;;16.88;50.39;100761.84;5077303;28;20431;-60
2023/03/03 07:45:24;;;;;;;9.90;6.50;;;;;;;16.84;50.55;100760.91;5095700;28;20656;-61
2023/03/03 07:47:49;;;;;;;9.17;7.07;;;;;;;16.84;50.25;100773.16;5112644;28;20427;-60
2023/03/03 07:50:20;;;;;;;10.57;7.23;;;;;;;16.83;50.62;100760.09;5110303;28;20843;-60
2023/03/03 07:52:57;;;;;;;10.57;6.97;;;;;;;16.82;50.61;100755.59;5106469;28;20196;-61
2023/03/03 07:55:38;;;;;;;10.20;7.67;;;;;;;16.86;50.56;100764.25;5093962;28;20452;-60
2023/03/03 07:58:09;;;;;;;9.03;7.23;;;;;;;16.90;50.38;100770.91;5113680;27;20462;-60
2023/03/03 08:01:04;;;;;;;11.30;7.47;;;;;;;16.86;50.39;100775.66;5106915;28;20534;-60
2023/03/03 08:03:29;;;;;;;8.83;6.80;;;;;;;16.84;50.32;100773.16;5110612;28;20469;-60
2023/03/03 08:05:54;;;;;;;10.00;7.00;;;;;;;16.84;50.43;100775.16;5066827;28;20499;-60
2023/03/03 08:08:30;;;;;;;9.90;7.30;;;;;;;16.81;50.65;100773.84;5110850;28;20224;-60
2023/03/03 08:11:00;;;;;;;18.20;10.43;;;;;;;16.74;50.91;100787.03;5090696;28;20255;-60
2023/03/03 08:13:31;;;;;;;32.13;21.50;;;;;;;16.44;47.52;100777.91;5086428;28;20447;-60
2023/03/03 08:16:01;;;;;;;37.27;25.97;;;;;;;16.41;49.43;100790.00;5109074;28;20434;-60
2023/03/03 08:18:29;;;;;;;45.40;27.70;;;;;;;16.49;44.72;100786.22;5101159;28;20906;-60
2023/03/03 08:20:59;;;;;;;41.13;25.20;;;;;;;16.55;42.05;100781.94;5054265;28;20432;-60
2023/03/03 08:23:24;;;;;;;40.70;25.03;;;;;;;16.81;41.60;100779.56;5089576;28;20427;-61
2023/03/03 08:25:50;;;;;;;48.87;23.80;;;;;;;17.20;41.77;100781.63;5087052;28;20535;-61
2023/03/03 08:28:15;;;;;;;34.70;22.93;;;;;;;17.76;41.23;100783.38;5082427;28;20185;-60
2023/03/03 08:30:41;;;;;;;39.67;24.10;;;;;;;17.84;41.10;100796.66;5096698;28;20591;-61
2023/03/03 08:33:06;;;;;;;33.57;22.90;;;;;;;17.81;40.02;100791.66;5107311;28;20188;-60
2023/03/03 08:35:32;;;;;;;36.23;23.20;;;;;;;17.92;38.83;100783.41;5103051;27;20173;-60
2023/03/03 08:37:57;;;;;;;35.93;21.37;;;;;;;18.02;38.31;100792.28;5110990;28;20675;-60
2023/03/03 08:40:23;;;;;;;42.90;24.70;;;;;;;18.08;37.54;100790.84;5107730;28;20178;-59
2023/03/03 08:42:48;;;;;;;38.53;23.37;;;;;;;18.09;36.86;100786.78;5090890;28;20208;-60
2023/03/03 08:45:14;;;;;;;36.30;23.60;;;;;;;18.33;37.77;100786.66;5105412;28;20178;-60
2023/03/03 08:47:40;;;;;;;31.70;21.17;;;;;;;18.51;38.20;100785.06;5110233;28;20186;-59
2023/03/03 08:50:06;;;;;;;32.97;22.67;;;;;;;18.56;38.84;100787.66;5101039;28;20605;-60
2023/03/03 08:52:33;;;;;;;35.00;20.30;;;;;;;18.63;39.20;100787.00;5077922;28;20522;-60
2023/03/03 08:54:58;;;;;;;35.33;19.70;;;;;;;18.60;39.27;100785.72;5090636;28;20632;-60
2023/03/03 08:57:24;;;;;;;33.33;18.77;;;;;;;18.64;39.36;100783.78;5107010;28;20471;-60
2023/03/03 08:59:49;;;;;;;27.97;18.83;;;;;;;18.55;40.04;100788.00;5089599;28;20210;-60
2023/03/03 09:02:16;;;;;;;25.40;17.17;;;;;;;18.55;40.44;100780.28;5098765;28;20189;-61
2023/03/03 09:04:41;;;;;;;26.17;17.50;;;;;;;18.43;41.26;100776.69;5107003;28;20292;-61
2023/03/03 09:07:07;;;;;;;27.30;17.63;;;;;;;18.41;41.30;100776.25;5106371;28;20554;-60
2023/03/03 09:09:32;;;;;;;23.67;15.87;;;;;;;18.22;41.48;100782.63;5103017;27;20245;-61
2023/03/03 09:11:59;;;;;;;25.93;15.90;;;;;;;18.02;41.70;100791.47;5100415;28;20223;-60
2023/03/03 09:14:27;;;;;;;27.97;14.90;;;;;;;17.84;42.65;100788.09;5078914;28;20193;-61
2023/03/03 09:16:53;;;;;;;28.67;15.00;;;;;;;18.20;42.86;100787.03;5098547;28;20415;-61
2023/03/03 09:19:29;;;;;;;25.97;15.53;;;;;;;17.91;43.33;100791.16;5101731;28;20446;-60
2023/03/03 09:21:56;;;;;;;24.50;15.43;;;;;;;17.76;44.04;100783.38;5096338;28;20495;-60
2023/03/03 09:24:30;;;;;;;27.37;16.43;;;;;;;18.14;44.03;100789.34;5074974;28;20493;-59
2023/03/03 09:26:59;;;;;;;26.50;14.90;;;;;;;18.26;44.27;100795.00;5110667;28;20433;-60
2023/03/03 09:29:29;;;;;;;25.70;14.60;;;;;;;18.30;44.11;100804.50;5091027;28;20519;-60
2023/03/03 09:31:55;;;;;;;24.93;15.50;;;;;;;18.04;44.90;100804.19;5098094;28;20440;-60
2023/03/03 09:34:22;;;;;;;22.20;14.10;;;;;;;17.84;45.29;100810.94;5102595;28;20428;-60
2023/03/03 09:36:48;;;;;;;21.10;13.90;;;;;;;17.84;46.10;100808.09;5091492;28;20251;-59
2023/03/03 09:39:18;;;;;;;28.53;15.03;;;;;;;17.81;46.04;100811.66;5089065;28;20558;-60
2023/03/03 09:42:03;;;;;;;25.27;14.27;;;;;;;17.68;45.64;100818.63;5106367;28;20434;-60
2023/03/03 09:45:11;;;;;;;29.20;17.07;;;;;;;17.59;45.62;100820.81;5083355;28;20428;-60
2023/03/03 09:47:45;;;;;;;25.40;15.13;;;;;;;17.63;44.86;100823.75;5054245;28;20532;-60
2023/03/03 09:50:15;;;;;;;26.57;15.17;;;;;;;17.58;45.35;100819.16;5089952;28;20446;-60
2023/03/03 09:53:08;;;;;;;23.30;15.70;;;;;;;17.43;45.21;100822.75;5108541;28;20458;-60
2023/03/03 09:55:38;;;;;;;20.13;13.67;;;;;;;17.49;45.30;100811.91;5109705;28;20418;-60
2023/03/03 09:58:12;;;;;;;24.37;14.17;;;;;;;17.39;45.62;100818.13;5074674;28;20472;-60
2023/03/03 10:01:11;;;;;;;30.63;14.40;;;;;;;17.37;45.70;100815.63;5100803;27;20404;-60
2023/03/03 10:04:27;;;;;;;37.10;15.93;;;;;;;17.31;45.80;100817.03;5104325;28;20443;-60
2023/03/03 10:07:23;;;;;;;30.80;14.80;;;;;;;17.26;45.83;100805.88;5101720;28;20499;-60
2023/03/03 10:09:57;;;;;;;38.00;16.53;;;;;;;17.27;45.48;100816.13;5107741;28;20933;-60
2023/03/03 10:12:40;;;;;;;31.17;15.10;;;;;;;17.21;46.42;100817.53;5098086;28;20427;-60
2023/03/03 10:15:34;;;;;;;39.43;17.03;;;;;;;17.22;47.58;100819.22;5099697;28;20483;-60
2023/03/03 10:18:23;;;;;;;30.20;16.23;;;;;;;17.29;47.57;100813.72;5097062;28;20958;-60
2023/03/03 10:21:22;;;;;;;30.07;16.30;;;;;;;17.29;47.79;100816.56;5054731;28;20501;-60
2023/03/03 10:24:04;;;;;;;28.53;15.10;;;;;;;17.29;47.81;100813.72;5108031;28;20883;-60
2023/03/03 10:26:35;;;;;;;30.27;15.17;;;;;;;17.25;47.75;100804.22;5109443;28;21288;-60
2023/03/03 10:29:15;;;;;;;25.60;14.33;;;;;;;17.27;47.74;100813.25;5092039;28;20404;-60
2023/03/03 10:32:05;;;;;;;32.83;14.80;;;;;;;17.29;47.79;100813.72;5111199;28;20410;-60
2023/03/03 10:34:46;;;;;;;30.67;14.90;;;;;;;17.27;47.70;100810.41;5129651;28;20949;-60
2023/03/03 10:37:42;;;;;;;23.23;11.80;;;;;;;17.28;47.77;100816.94;5108422;28;20553;-60
2023/03/03 10:40:19;;;;;;;25.93;14.13;;;;;;;17.27;48.05;100820.97;5095515;28;20423;-60
2023/03/03 10:43:26;;;;;;;27.20;12.40;;;;;;;17.25;48.47;100812.78;5113729;28;20441;-60
2023/03/03 10:46:20;;;;;;;24.83;13.20;;;;;;;17.45;47.92;100817.50;5080292;28;20451;-60
2023/03/03 10:48:48;;;;;;;25.10;12.67;;;;;;;17.41;47.95;100822.28;5113615;28;20837;-59
2023/03/03 10:51:32;;;;;;;32.83;12.63;;;;;;;17.37;48.56;100827.03;5114024;28;20415;-60
2023/03/03 10:54:30;;;;;;;22.00;12.50;;;;;;;17.28;48.21;100814.91;5096225;28;20929;-59
2023/03/03 10:57:13;;;;;;;19.50;11.33;;;;;;;17.31;48.49;100817.03;5069979;28;20769;-59
2023/03/03 10:59:42;;;;;;;25.43;13.90;;;;;;;17.34;48.39;100813.47;5090813;28;20442;-59
2023/03/03 11:02:40;;;;;;;20.93;11.47;;;;;;;17.37;48.38;100818.47;5094415;28;20442;-59
2023/03/03 11:05:40;;;;;;;28.23;12.10;;;;;;;17.34;48.63;100818.34;5078473;28;20448;-60
2023/03/03 11:08:12;;;;;;;21.23;11.53;;;;;;;17.38;48.64;100817.28;5069613;28;20464;-60
2023/03/03 11:10:50;;;;;;;21.47;11.33;;;;;;;17.36;48.77;100810.25;5112030;28;20438;-60
2023/03/03 11:13:42;;;;;;;31.93;13.20;;;;;;;17.38;49.00;100810.72;5105838;28;20904;-60
2023/03/03 11:16:20;;;;;;;26.13;11.57;;;;;;;17.37;48.88;100809.91;5115208;27;20886;-59
2023/03/03 11:19:06;;;;;;;24.77;12.70;;;;;;;17.37;49.08;100809.06;5118660;27;21031;-60
2023/03/03 11:21:38;;;;;;;21.13;11.47;;;;;;;17.37;49.05;100807.06;5113431;27;20604;-60
2023/03/03 11:24:18;;;;;;;21.27;11.33;;;;;;;17.39;49.05;100807.53;5091497;28;20403;-59
2023/03/03 11:26:51;;;;;;;24.57;12.10;;;;;;;17.40;49.22;100812.06;5076575;28;20418;-59